createdAt,value
2018-01-24T00:00:41.443Z,99386.35
2018-01-24T00:03:09.600Z,99378.78
2018-01-24T00:05:37.609Z,99375.87
2018-01-24T00:08:05.063Z,99378.72
2018-01-24T00:10:32.524Z,99385.22
2018-01-24T00:13:00.602Z,99384.95
2018-01-24T00:15:28.057Z,99383.91
2018-01-24T00:17:55.524Z,99379.38
2018-01-24T00:20:23.285Z,99383.71
2018-01-24T00:22:50.747Z,99391.14
2018-01-24T00:25:18.211Z,99389.24
2018-01-24T00:27:46.276Z,99380.27
2018-01-24T00:30:13.731Z,99397.66
2018-01-24T00:32:41.193Z,99396.17
2018-01-24T00:35:10.815Z,99399.80
2018-01-24T00:37:38.273Z,99399.30
2018-01-24T00:40:05.741Z,99396.54
2018-01-24T00:42:33.488Z,99388.63
2018-01-24T00:45:00.940Z,99389.06
2018-01-24T00:47:28.389Z,99389.28
2018-01-24T00:49:56.177Z,99391.89
2018-01-24T00:52:23.624Z,99397.89
2018-01-24T00:54:51.076Z,99398.08
2018-01-24T00:57:18.865Z,99402.34
2018-01-24T00:59:46.313Z,99400.33
2018-01-24T01:02:13.770Z,99400.86
2018-01-24T01:04:41.860Z,99404.08
2018-01-24T01:07:09.324Z,99404.70
2018-01-24T01:09:36.786Z,99410.41
2018-01-24T01:12:04.561Z,99414.30
2018-01-24T01:14:32.016Z,99411.50
2018-01-24T01:16:59.477Z,99416.45
2018-01-24T01:19:27.228Z,99416.28
2018-01-24T01:21:54.674Z,99417.95
2018-01-24T01:24:22.133Z,99413.55
2018-01-24T01:26:49.922Z,99412.27
2018-01-24T01:29:17.393Z,99412.58
2018-01-24T01:31:44.856Z,99412.18
2018-01-24T01:34:12.604Z,99409.66
2018-01-24T01:36:40.064Z,99408.55
2018-01-24T01:39:07.529Z,99416.73
2018-01-24T01:41:35.566Z,99422.34
2018-01-24T01:44:03.031Z,99414.67
2018-01-24T01:46:30.488Z,99409.52
2018-01-24T01:48:58.290Z,99404.02
2018-01-24T01:51:25.752Z,99407.48
2018-01-24T01:53:53.216Z,99405.32
2018-01-24T01:56:20.976Z,99404.22
2018-01-24T01:58:48.448Z,99400.25
2018-01-24T02:01:15.904Z,99394.06
2018-01-24T02:03:43.980Z,99404.54
2018-01-24T02:06:11.781Z,99403.41
2018-01-24T02:08:39.231Z,99415.16
2018-01-24T02:11:07.590Z,99419.46
2018-01-24T02:13:35.040Z,99405.58
2018-01-24T02:16:02.492Z,99397.22
2018-01-24T02:18:30.231Z,99398.05
2018-01-24T02:20:57.704Z,99392.02
2018-01-24T02:23:25.167Z,99388.12
2018-01-24T02:25:52.968Z,99377.81
2018-01-24T02:28:20.434Z,99384.36
2018-01-24T02:30:47.892Z,99364.63
2018-01-24T02:33:16.256Z,99387.13
2018-01-24T02:35:43.717Z,99400.19
2018-01-24T02:38:23.461Z,99394.19
2018-01-24T02:40:50.920Z,99402.60
2018-01-24T02:43:18.372Z,99398.64
2018-01-24T02:45:46.157Z,99402.18
2018-01-24T02:48:13.618Z,99396.20
2018-01-24T02:50:41.252Z,99399.13
2018-01-24T02:53:09.374Z,99398.93
2018-01-24T02:55:36.832Z,99400.34
2018-01-24T02:58:04.289Z,99406.36
2018-01-24T03:00:32.146Z,99403.72
2018-01-24T03:02:59.604Z,99398.03
2018-01-24T03:05:27.053Z,99390.06
2018-01-24T03:07:55.471Z,99389.29
2018-01-24T03:10:22.934Z,99388.00
2018-01-24T03:12:50.393Z,99386.15
2018-01-24T03:15:18.134Z,99384.00
2018-01-24T03:17:45.591Z,99383.11
2018-01-24T03:20:13.059Z,99386.39
2018-01-24T03:22:41.081Z,99384.66
2018-01-24T03:25:08.532Z,99392.77
2018-01-24T03:27:35.988Z,99389.61
2018-01-24T03:30:03.585Z,99390.28
2018-01-24T03:32:31.044Z,99390.16
2018-01-24T03:34:58.505Z,99388.83
2018-01-24T03:37:26.233Z,99386.14
2018-01-24T03:39:53.673Z,99386.91
2018-01-24T03:42:21.128Z,99384.48
2018-01-24T03:44:48.879Z,99382.56
2018-01-24T03:47:16.345Z,99379.41
2018-01-24T03:49:43.801Z,99383.98
2018-01-24T03:52:11.551Z,99384.12
2018-01-24T03:54:38.993Z,99386.63
2018-01-24T03:57:06.448Z,99384.80
2018-01-24T03:59:34.257Z,99384.47
2018-01-24T04:02:01.736Z,99385.16
2018-01-24T04:04:29.197Z,99385.64
2018-01-24T04:06:56.947Z,99377.48
2018-01-24T04:09:25.061Z,99373.05
2018-01-24T04:11:52.525Z,99370.18
2018-01-24T04:14:20.240Z,99370.30
2018-01-24T04:16:47.701Z,99374.27
2018-01-24T04:19:15.165Z,99375.05
2018-01-24T04:21:42.933Z,99369.16
2018-01-24T04:24:10.397Z,99374.20
2018-01-24T04:26:37.857Z,99374.64
2018-01-24T04:29:05.733Z,99382.38
2018-01-24T04:31:33.192Z,99378.20
2018-01-24T04:34:00.674Z,99384.50
2018-01-24T04:36:28.500Z,99388.03
2018-01-24T04:38:55.953Z,99388.69
2018-01-24T04:41:23.401Z,99382.20
2018-01-24T04:43:51.297Z,99376.28
2018-01-24T04:46:18.756Z,99379.08
2018-01-24T04:48:46.216Z,99379.82
2018-01-24T04:51:13.982Z,99373.28
2018-01-24T04:53:41.428Z,99374.70
2018-01-24T04:56:08.893Z,99381.09
2018-01-24T04:58:36.921Z,99380.02
2018-01-24T05:01:04.381Z,99383.84
2018-01-24T05:03:31.835Z,99385.30
2018-01-24T05:05:59.664Z,99374.66
2018-01-24T05:08:27.125Z,99381.39
2018-01-24T05:10:55.277Z,99378.05
2018-01-24T05:13:22.969Z,99382.19
2018-01-24T05:15:50.436Z,99377.92
2018-01-24T05:18:17.896Z,99376.13
2018-01-24T05:20:46.664Z,99371.91
2018-01-24T05:23:14.116Z,99374.53
2018-01-24T05:25:41.576Z,99377.23
2018-01-24T05:28:09.820Z,99383.85
2018-01-24T05:30:37.279Z,99383.81
2018-01-24T05:33:04.745Z,99376.32
2018-01-24T05:35:32.564Z,99384.48
2018-01-24T05:38:00.021Z,99385.89
2018-01-24T05:40:27.497Z,99385.98
2018-01-24T05:42:55.244Z,99382.06
2018-01-24T05:45:22.698Z,99378.97
2018-01-24T05:47:50.148Z,99379.78
2018-01-24T05:50:17.933Z,99373.27
2018-01-24T05:52:45.393Z,99377.80
2018-01-24T05:55:12.848Z,99378.60
2018-01-24T05:57:40.627Z,99377.85
2018-01-24T06:00:08.084Z,99377.00
2018-01-24T06:02:35.550Z,99371.53
2018-01-24T06:05:03.309Z,99374.27
2018-01-24T06:07:30.782Z,99372.17
2018-01-24T06:09:58.240Z,99362.77
2018-01-24T06:12:26.300Z,99369.08
2018-01-24T06:14:53.756Z,99373.59
2018-01-24T06:17:21.221Z,99377.36
2018-01-24T06:19:48.988Z,99385.69
2018-01-24T06:22:16.448Z,99383.86
2018-01-24T06:24:43.907Z,99388.68
2018-01-24T06:27:11.691Z,99387.59
2018-01-24T06:29:39.170Z,99391.00
2018-01-24T06:32:06.624Z,99390.87
2018-01-24T06:34:34.352Z,99389.78
2018-01-24T06:37:01.805Z,99392.70
2018-01-24T06:39:29.262Z,99393.30
2018-01-24T06:41:56.973Z,99392.50
2018-01-24T06:44:24.431Z,99389.84
2018-01-24T06:46:51.893Z,99387.12
2018-01-24T06:49:20.007Z,99393.39
2018-01-24T06:51:47.460Z,99389.69
2018-01-24T06:54:14.927Z,99393.68
2018-01-24T06:56:42.727Z,99398.22
2018-01-24T06:59:10.185Z,99408.04
2018-01-24T07:01:37.632Z,99405.94
2018-01-24T07:04:05.366Z,99400.86
2018-01-24T07:06:32.824Z,99412.06
2018-01-24T07:09:00.297Z,99414.60
2018-01-24T07:11:28.101Z,99412.14
2018-01-24T07:14:07.561Z,99414.59
2018-01-24T07:16:35.376Z,99416.55
2018-01-24T07:19:02.827Z,99418.17
2018-01-24T07:21:30.287Z,99417.68
2018-01-24T07:24:00.457Z,99414.91
2018-01-24T07:26:27.928Z,99410.39
2018-01-24T07:28:55.384Z,99394.81
2018-01-24T07:31:23.148Z,99388.26
2018-01-24T07:33:50.612Z,99394.30
2018-01-24T07:36:18.068Z,99404.59
2018-01-24T07:38:45.833Z,99397.88
2018-01-24T07:41:13.288Z,99403.77
2018-01-24T07:43:40.745Z,99405.66
2018-01-24T07:46:08.519Z,99408.45
2018-01-24T07:48:35.972Z,99408.70
2018-01-24T07:51:03.425Z,99404.48
2018-01-24T07:53:31.207Z,99407.31
2018-01-24T07:55:58.736Z,99403.11
2018-01-24T07:58:26.197Z,99398.84
2018-01-24T08:00:54.209Z,99400.75
2018-01-24T08:03:21.669Z,99418.83
2018-01-24T08:05:49.144Z,99408.36
2018-01-24T08:08:16.893Z,99411.11
2018-01-24T08:10:44.354Z,99416.91
2018-01-24T08:13:11.811Z,99411.97
2018-01-24T08:15:40.237Z,99420.00
2018-01-24T08:18:07.696Z,99414.67
2018-01-24T08:20:35.161Z,99421.27
2018-01-24T08:23:02.884Z,99424.76
2018-01-24T08:25:30.340Z,99424.66
2018-01-24T08:27:57.792Z,99423.48
2018-01-24T08:30:25.568Z,99420.19
2018-01-24T08:32:53.027Z,99420.44
2018-01-24T08:35:20.478Z,99424.28
2018-01-24T08:37:48.247Z,99432.80
2018-01-24T08:40:16.845Z,99421.97
2018-01-24T08:42:44.304Z,99435.00
2018-01-24T08:45:12.164Z,99433.42
2018-01-24T08:47:39.621Z,99433.98
2018-01-24T08:50:07.139Z,99433.06
2018-01-24T08:52:34.852Z,99431.34
2018-01-24T08:55:02.316Z,99429.81
2018-01-24T08:57:29.785Z,99424.06
2018-01-24T08:59:57.559Z,99426.44
2018-01-24T09:02:25.017Z,99427.16
2018-01-24T09:04:52.475Z,99426.86
2018-01-24T09:07:20.224Z,99422.95
2018-01-24T09:09:47.675Z,99423.02
2018-01-24T09:12:15.129Z,99418.32
2018-01-24T09:14:43.117Z,99422.02
2018-01-24T09:17:10.756Z,99428.43
2018-01-24T09:19:38.209Z,99430.23
2018-01-24T09:22:06.084Z,99423.92
2018-01-24T09:24:33.533Z,99428.83
2018-01-24T09:27:00.988Z,99430.88
2018-01-24T09:29:28.905Z,99430.64
2018-01-24T09:31:56.358Z,99437.67
2018-01-24T09:34:23.818Z,99438.28
2018-01-24T09:36:51.594Z,99449.88
2018-01-24T09:39:19.044Z,99446.06
2018-01-24T09:41:46.496Z,99451.69
2018-01-24T09:44:14.285Z,99452.42
2018-01-24T09:46:41.771Z,99450.02
2018-01-24T09:49:09.422Z,99440.28
2018-01-24T09:51:37.289Z,99440.34
2018-01-24T09:54:04.753Z,99450.40
2018-01-24T09:56:32.202Z,99446.06
2018-01-24T09:58:59.964Z,99444.18
2018-01-24T10:01:27.413Z,99440.42
2018-01-24T10:03:54.869Z,99432.00
2018-01-24T10:06:22.641Z,99438.41
2018-01-24T10:08:50.090Z,99437.06
2018-01-24T10:11:17.533Z,99438.16
2018-01-24T10:13:45.640Z,99433.31
2018-01-24T10:16:14.719Z,99435.78
2018-01-24T10:18:42.689Z,99436.31
2018-01-24T10:21:10.472Z,99432.78
2018-01-24T10:23:37.912Z,99429.86
2018-01-24T10:26:05.404Z,99436.69
2018-01-24T10:28:33.072Z,99435.06
2018-01-24T10:31:00.551Z,99439.11
2018-01-24T10:33:28.008Z,99436.40
2018-01-24T10:35:55.841Z,99423.64
2018-01-24T10:38:23.298Z,99428.41
2018-01-24T10:40:50.754Z,99428.31
2018-01-24T10:43:18.540Z,99416.53
2018-01-24T10:45:46.002Z,99408.02
2018-01-24T10:48:13.457Z,99405.89
2018-01-24T10:50:41.537Z,99401.48
2018-01-24T10:53:08.996Z,99392.22
2018-01-24T10:55:36.454Z,99387.61
2018-01-24T10:58:04.168Z,99390.20
2018-01-24T11:00:31.622Z,99382.75
2018-01-24T11:02:59.085Z,99385.78
2018-01-24T11:05:26.901Z,99388.91
2018-01-24T11:07:54.356Z,99378.77
2018-01-24T11:10:21.800Z,99368.37
2018-01-24T11:12:49.640Z,99362.41
2018-01-24T11:15:17.098Z,99362.47
2018-01-24T11:17:44.545Z,99364.09
2018-01-24T11:20:14.169Z,99347.76
2018-01-24T11:22:41.634Z,99359.59
2018-01-24T11:25:09.088Z,99348.61
2018-01-24T11:27:36.820Z,99345.35
2018-01-24T11:30:04.275Z,99344.38
2018-01-24T11:32:31.720Z,99333.66
2018-01-24T11:34:59.498Z,99326.47
2018-01-24T11:37:26.960Z,99324.86
2018-01-24T11:39:54.417Z,99323.97
2018-01-24T11:42:22.152Z,99332.11
2018-01-24T11:44:49.599Z,99336.97
2018-01-24T11:47:17.056Z,99327.83
2018-01-24T11:49:44.865Z,99328.98
2018-01-24T11:52:12.309Z,99325.16
2018-01-24T11:54:39.765Z,99311.97
2018-01-24T11:57:07.496Z,99308.67
2018-01-24T11:59:34.962Z,99307.60
2018-01-24T12:02:02.421Z,99309.27
2018-01-24T12:04:31.784Z,99313.03
2018-01-24T12:06:59.247Z,99307.20
2018-01-24T12:09:26.785Z,99294.78
2018-01-24T12:11:54.572Z,99292.14
2018-01-24T12:14:22.029Z,99292.32
2018-01-24T12:16:49.480Z,99275.32
2018-01-24T12:19:17.186Z,99266.63
2018-01-24T12:21:45.292Z,99267.66
2018-01-24T12:24:12.743Z,99258.67
2018-01-24T12:26:40.449Z,99256.28
2018-01-24T12:29:07.905Z,99248.13
2018-01-24T12:31:35.352Z,99238.19
2018-01-24T12:34:03.138Z,99230.11
2018-01-24T12:36:30.581Z,99222.16
2018-01-24T12:38:58.021Z,99220.67
2018-01-24T12:41:25.826Z,99219.17
2018-01-24T12:43:53.282Z,99218.91
2018-01-24T12:46:20.733Z,99214.46
2018-01-24T12:48:48.836Z,99196.16
2018-01-24T12:51:16.318Z,99195.84
2018-01-24T12:53:43.768Z,99188.27
2018-01-24T12:56:11.829Z,99180.39
2018-01-24T12:58:39.284Z,99178.23
2018-01-24T13:01:06.745Z,99165.25
2018-01-24T13:03:34.496Z,99156.59
2018-01-24T13:06:01.968Z,99146.50
2018-01-24T13:08:29.427Z,99146.45
2018-01-24T13:10:57.496Z,99149.17
2018-01-24T13:13:24.957Z,99146.52
2018-01-24T13:15:52.412Z,99139.86
2018-01-24T13:18:20.181Z,99144.97
2018-01-24T13:20:47.638Z,99140.33
2018-01-24T13:23:15.493Z,99145.97
2018-01-24T13:25:43.208Z,99143.48
2018-01-24T13:28:10.665Z,99133.63
2018-01-24T13:30:38.121Z,99129.99
2018-01-24T13:33:05.753Z,99135.67
2018-01-24T13:35:33.196Z,99134.02
2018-01-24T13:38:00.648Z,99125.17
2018-01-24T13:40:28.575Z,99125.98
2018-01-24T13:42:56.033Z,99125.04
2018-01-24T13:45:23.488Z,99124.72
2018-01-24T13:47:51.248Z,99129.59
2018-01-24T13:50:18.704Z,99125.56
2018-01-24T13:52:46.157Z,99119.42
2018-01-24T13:55:13.933Z,99113.45
2018-01-24T13:57:41.400Z,99117.19
2018-01-24T14:00:08.857Z,99121.91
2018-01-24T14:02:36.917Z,99115.44
2018-01-24T14:05:04.375Z,99116.50
2018-01-24T14:07:31.834Z,99116.11
2018-01-24T14:09:59.629Z,99109.50
2018-01-24T14:12:27.088Z,99109.42
2018-01-24T14:14:54.545Z,99110.45
2018-01-24T14:17:22.308Z,99103.97
2018-01-24T14:19:49.777Z,99105.93
2018-01-24T14:22:17.251Z,99106.11
2018-01-24T14:24:46.205Z,99105.91
2018-01-24T14:27:13.653Z,99097.44
2018-01-24T14:29:41.109Z,99104.53
2018-01-24T14:32:08.742Z,99104.31
2018-01-24T14:34:36.204Z,99105.56
2018-01-24T14:37:03.664Z,99097.35
2018-01-24T14:39:31.598Z,99098.92
2018-01-24T14:41:59.049Z,99101.23
2018-01-24T14:44:26.511Z,99096.33
2018-01-24T14:46:54.268Z,99086.52
2018-01-24T14:49:21.722Z,99084.45
2018-01-24T14:51:49.185Z,99090.36
2018-01-24T14:54:16.964Z,99090.19
2018-01-24T14:56:44.440Z,99083.60
2018-01-24T14:59:11.899Z,99086.17
2018-01-24T15:01:39.652Z,99085.31
2018-01-24T15:04:07.116Z,99079.63
2018-01-24T15:06:34.584Z,99082.77
2018-01-24T15:09:02.307Z,99079.16
2018-01-24T15:11:29.755Z,99081.38
2018-01-24T15:13:57.213Z,99077.09
2018-01-24T15:16:25.025Z,99081.57
2018-01-24T15:18:52.508Z,99085.89
2018-01-24T15:21:20.028Z,99075.09
2018-01-24T15:23:47.700Z,99079.88
2018-01-24T15:26:15.849Z,99075.86
2018-01-24T15:28:43.301Z,99071.96
2018-01-24T15:31:11.320Z,99066.76
2018-01-24T15:33:38.768Z,99066.48
2018-01-24T15:36:06.218Z,99068.44
2018-01-24T15:38:34.005Z,99064.98
2018-01-24T15:41:01.457Z,99063.11
2018-01-24T15:43:28.909Z,99065.45
2018-01-24T15:45:56.685Z,99057.88
2018-01-24T15:48:24.134Z,99052.13
2018-01-24T15:50:51.584Z,99045.59
2018-01-24T15:53:19.380Z,99049.69
2018-01-24T15:55:46.824Z,99042.03
2018-01-24T15:58:14.276Z,99033.81
2018-01-24T16:00:42.059Z,99041.70
2018-01-24T16:03:09.507Z,99044.42
2018-01-24T16:05:36.974Z,99041.33
2018-01-24T16:08:04.741Z,99039.34
2018-01-24T16:10:32.188Z,99038.94
2018-01-24T16:12:59.642Z,99038.21
2018-01-24T16:15:27.440Z,99041.72
2018-01-24T16:17:54.906Z,99028.11
2018-01-24T16:20:22.359Z,99022.36
2018-01-24T16:22:50.121Z,99014.77
2018-01-24T16:25:17.580Z,99016.49
2018-01-24T16:27:45.028Z,99010.95
2018-01-24T16:30:12.740Z,99012.93
2018-01-24T16:32:40.200Z,99007.58
2018-01-24T16:35:07.656Z,98998.83
2018-01-24T16:37:35.526Z,99000.72
2018-01-24T16:40:03.002Z,99002.23
2018-01-24T16:42:30.474Z,98997.28
2018-01-24T16:44:58.182Z,98993.67
2018-01-24T16:47:25.634Z,98994.52
2018-01-24T16:49:53.095Z,98994.72
2018-01-24T16:52:21.203Z,98992.03
2018-01-24T16:54:48.656Z,98991.23
2018-01-24T16:57:16.108Z,98990.29
2018-01-24T16:59:43.863Z,98990.00
2018-01-24T17:02:11.328Z,98988.37
2018-01-24T17:04:38.794Z,98986.20
2018-01-24T17:07:06.561Z,98976.49
2018-01-24T17:09:34.021Z,98980.11
2018-01-24T17:12:01.480Z,98978.88
2018-01-24T17:14:29.237Z,98987.73
2018-01-24T17:16:56.715Z,98979.95
2018-01-24T17:19:24.166Z,98979.48
2018-01-24T17:21:51.929Z,98970.13
2018-01-24T17:24:19.394Z,98975.38
2018-01-24T17:26:46.865Z,98979.72
2018-01-24T17:29:17.682Z,98973.41
2018-01-24T17:31:45.141Z,98975.92
2018-01-24T17:34:12.604Z,98969.91
2018-01-24T17:36:40.684Z,98966.14
2018-01-24T17:39:08.144Z,98965.02
2018-01-24T17:41:35.621Z,98963.22
2018-01-24T17:44:03.727Z,98958.09
2018-01-24T17:46:31.192Z,98954.98
2018-01-24T17:48:58.649Z,98948.17
2018-01-24T17:51:26.355Z,98949.11
2018-01-24T17:53:53.864Z,98943.97
2018-01-24T17:56:21.334Z,98940.79
2018-01-24T17:58:49.116Z,98944.78
2018-01-24T18:01:16.583Z,98937.38
2018-01-24T18:03:44.059Z,98931.16
2018-01-24T18:06:11.910Z,98922.69
2018-01-24T18:08:39.360Z,98923.77
2018-01-24T18:11:06.816Z,98929.67
2018-01-24T18:13:34.923Z,98924.50
2018-01-24T18:16:03.389Z,98931.12
2018-01-24T18:18:32.365Z,98919.88
2018-01-24T18:21:01.851Z,98913.25
2018-01-24T18:23:29.416Z,98912.03
2018-01-24T18:25:56.878Z,98907.72
2018-01-24T18:28:24.718Z,98903.54
2018-01-24T18:30:54.505Z,98908.30
2018-01-24T18:33:23.483Z,98906.04
2018-01-24T18:35:53.128Z,98901.54
2018-01-24T18:38:21.042Z,98893.38
2018-01-24T18:40:50.203Z,98889.23
2018-01-24T18:43:18.152Z,98883.49
2018-01-24T18:45:47.476Z,98886.88
2018-01-24T18:48:15.129Z,98885.59
2018-01-24T18:50:42.931Z,98889.26
2018-01-24T18:53:11.992Z,98885.31
2018-01-24T18:55:39.525Z,98874.14
2018-01-24T18:58:07.457Z,98878.73
2018-01-24T19:00:34.914Z,98867.80
2018-01-24T19:03:02.386Z,98874.21
2018-01-24T19:05:30.125Z,98869.66
2018-01-24T19:07:57.580Z,98869.41
2018-01-24T19:10:25.040Z,98869.86
2018-01-24T19:12:53.130Z,98862.36
2018-01-24T19:15:20.599Z,98867.24
2018-01-24T19:17:48.075Z,98862.70
2018-01-24T19:20:16.426Z,98851.94
2018-01-24T19:22:44.183Z,98857.23
2018-01-24T19:25:12.361Z,98841.09
2018-01-24T19:27:39.972Z,98841.80
2018-01-24T19:30:07.441Z,98845.95
2018-01-24T19:32:36.506Z,98843.44
2018-01-24T19:35:04.569Z,98846.09
2018-01-24T19:37:32.031Z,98839.78
2018-01-24T19:39:59.487Z,98842.38
2018-01-24T19:42:27.268Z,98838.64
2018-01-24T19:44:54.766Z,98839.52
2018-01-24T19:47:23.865Z,98831.06
2018-01-24T19:49:52.068Z,98826.45
2018-01-24T19:52:19.666Z,98826.50
2018-01-24T19:54:47.444Z,98827.47
2018-01-24T19:57:15.932Z,98823.23
2018-01-24T19:59:44.345Z,98821.32
2018-01-24T20:02:11.989Z,98817.89
2018-01-24T20:04:40.397Z,98816.88
2018-01-24T20:07:07.843Z,98813.94
2018-01-24T20:09:35.379Z,98818.22
2018-01-24T20:12:04.450Z,98811.78
2018-01-24T20:14:31.986Z,98806.52
2018-01-24T20:16:59.436Z,98807.05
2018-01-24T20:19:27.763Z,98800.24
2018-01-24T20:21:55.720Z,98802.14
2018-01-24T20:24:23.336Z,98802.39
2018-01-24T20:26:51.372Z,98804.29
2018-01-24T20:29:18.823Z,98809.17
2018-01-24T20:31:46.891Z,98806.65
2018-01-24T20:34:16.184Z,98805.58
2018-01-24T20:36:43.652Z,98802.48
2018-01-24T20:39:11.113Z,98795.05
2018-01-24T20:41:38.827Z,98799.80
2018-01-24T20:44:07.335Z,98795.05
2018-01-24T20:46:36.002Z,98797.03
2018-01-24T20:49:04.340Z,98789.69
2018-01-24T20:51:31.791Z,98795.37
2018-01-24T20:53:59.269Z,98795.39
2018-01-24T20:56:27.018Z,98787.58
2018-01-24T20:58:54.481Z,98791.99
2018-01-24T21:01:21.948Z,98778.08
2018-01-24T21:03:49.710Z,98770.53
2018-01-24T21:13:00.848Z,98769.19
2018-01-24T21:15:28.309Z,98768.30
2018-01-24T21:17:55.756Z,98770.52
2018-01-24T21:20:23.526Z,98772.13
2018-01-24T21:22:50.972Z,98761.63
2018-01-24T21:25:18.435Z,98766.29
2018-01-24T21:27:46.524Z,98750.42
2018-01-24T21:30:21.674Z,98747.35
2018-01-24T21:33:01.404Z,98751.36
2018-01-24T21:35:42.061Z,98754.42
2018-01-24T21:38:09.845Z,98762.03
2018-01-24T21:40:37.300Z,98765.42
2018-01-24T21:43:04.756Z,98764.38
2018-01-24T21:45:32.534Z,98763.88
2018-01-24T21:48:00.007Z,98768.27
2018-01-24T21:50:27.477Z,98772.47
2018-01-24T21:52:55.540Z,98777.82
2018-01-24T21:55:23.008Z,98773.78
2018-01-24T21:57:50.464Z,98768.50
2018-01-24T22:00:18.529Z,98775.31
2018-01-24T22:02:46.004Z,98785.39
2018-01-24T22:05:13.461Z,98779.17
2018-01-24T22:07:41.205Z,98769.97
2018-01-24T22:10:08.660Z,98763.45
2018-01-24T22:12:36.115Z,98764.79
2018-01-24T22:15:03.909Z,98767.73
2018-01-24T22:17:31.473Z,98774.56
2018-01-24T22:19:58.928Z,98770.78
2018-01-24T22:22:26.897Z,98767.05
2018-01-24T22:24:54.356Z,98767.05
2018-01-24T22:27:21.821Z,98757.73
2018-01-24T22:29:49.583Z,98761.09
2018-01-24T22:32:17.049Z,98755.84
2018-01-24T22:34:44.540Z,98746.89
2018-01-24T22:37:12.876Z,98738.16
2018-01-24T22:39:40.332Z,98735.08
2018-01-24T22:42:07.787Z,98722.55
2018-01-24T22:44:35.574Z,98721.45
2018-01-24T22:47:03.040Z,98743.73
2018-01-24T22:49:30.493Z,98731.83
2018-01-24T22:51:58.243Z,98722.46
2018-01-24T22:54:25.696Z,98726.39
2018-01-24T22:56:53.153Z,98733.34
2018-01-24T22:59:20.951Z,98733.94
2018-01-24T23:01:48.404Z,98741.47
2018-01-24T23:04:15.853Z,98747.55
2018-01-24T23:06:43.625Z,98750.36
2018-01-24T23:09:11.083Z,98751.47
2018-01-24T23:11:38.553Z,98748.24
2018-01-24T23:14:06.164Z,98751.05
2018-01-24T23:16:33.625Z,98753.84
2018-01-24T23:19:01.077Z,98752.84
2018-01-24T23:21:29.000Z,98749.80
2018-01-24T23:23:56.510Z,98753.30
2018-01-24T23:26:23.932Z,98762.02
2018-01-24T23:28:52.001Z,98761.66
2018-01-24T23:31:19.449Z,98757.96
2018-01-24T23:33:46.902Z,98763.42
2018-01-24T23:36:14.680Z,98764.45
2018-01-24T23:38:42.528Z,98761.72
2018-01-24T23:41:09.979Z,98751.05
2018-01-24T23:43:37.685Z,98740.18
2018-01-24T23:46:05.141Z,98737.63
2018-01-24T23:48:32.596Z,98734.12
2018-01-24T23:51:00.370Z,98725.06
2018-01-24T23:53:27.833Z,98725.50
2018-01-24T23:55:55.290Z,98727.44
2018-01-24T23:58:25.201Z,98732.79
